DURO2: Washita River Durwood, OK

Data processed at Sat Jul 14 2018 23:35


All information presented herein is the property of the government of the United States of America and may be revised or deleted at any time without prior notice.
Dissemination of this information without the expressed written consent of the Public Affairs Office, Tulsa District U.S. Army Corps of Engineers is strictly prohibited.
These data are gathered electronically and, as presented, have not undergone any form of quality control. These data are not guaranteed to be valid or correct.
Go to home page.
Go to station list.

Upstream stations:

Downstream station:
Previous Day
Next Day
Current Day
    
SHEF ID:       DURO2     Washita River near Dickson, OK
STATION TYPE:  

               PRECIP PRECIP(A)     STAGE  RIV-FLOW  BAT-LOAD
                   in        in        ft       cfs      volt
              Ccp-Rev   Ccp-Rev   Ccp-Rev   Ccp-Rev   Ccp-Rev
(US/Central)
07/12 00:00      0.00      ----      6.36       267     12.49
07/12 01:00      0.00      ----      6.36       267     12.41
07/12 02:00      0.00      ----      6.34       256     12.41
07/12 03:00      ----      ----      6.36       267      ----
07/12 04:00      0.00      ----      6.35       261     12.41
07/12 05:00      0.00      ----      6.35       261     12.41
07/12 06:00      0.00      ----      6.35       261     12.41
07/12 07:00      0.00      ----      6.35       261     12.41
07/12 08:00      0.00      ----      6.34       256     12.41
07/12 09:00      0.00      ----      6.34       256     12.89
07/12 10:00      0.00      ----      6.35       261     12.97
07/12 11:00      0.00      ----      6.35       261     12.73
07/12 12:00      0.00      ----      6.34       256     12.65
07/12 13:00      0.00      ----      6.33       250     12.65
07/12 14:00      0.00      ----      6.28       223     12.65
07/12 15:00      0.00      ----      6.32       245     12.73
07/12 16:00      0.00      ----      6.31       239     12.65
07/12 17:00      0.00      ----      6.29       228     12.57
07/12 18:00      0.00      ----      6.29       228     12.57
07/12 19:00      0.00      ----      6.28       223     12.57
07/12 20:00      0.00      ----      6.29       228     12.57
07/12 21:00      0.00      ----      6.28       223     12.49
07/12 22:00      0.00      ----      6.28       223     12.49
07/12 23:00      0.00      ----      6.28       223     12.41